createdAt,value
2022-09-10T00:00:56.326Z,4.82
2022-09-10T00:05:57.884Z,7.45
2022-09-10T00:11:05.215Z,6.18
2022-09-10T00:16:10.131Z,4.45
2022-09-10T00:21:15.047Z,9.27
2022-09-10T00:26:28.681Z,5.47
2022-09-10T00:31:32.271Z,5.00
2022-09-10T00:36:39.705Z,5.00
2022-09-10T00:41:43.969Z,5.50
2022-09-10T00:46:51.662Z,4.78
2022-09-10T00:51:53.916Z,3.83
2022-09-10T00:57:01.380Z,4.35
2022-09-10T01:02:03.981Z,3.30
2022-09-10T01:07:09.845Z,5.07
2022-09-10T01:12:53.601Z,2.97
2022-09-10T01:18:22.768Z,3.33
2022-09-10T01:23:54.529Z,3.67
2022-09-10T01:29:02.135Z,3.42
2022-09-10T01:34:16.868Z,5.50
2022-09-10T01:39:22.125Z,4.93
2022-09-10T01:44:44.513Z,3.13
2022-09-10T01:50:04.006Z,4.03
2022-09-10T01:55:08.907Z,4.45
2022-09-10T02:00:19.000Z,4.88
2022-09-10T02:05:23.670Z,4.18
2022-09-10T02:10:30.141Z,5.38
2022-09-10T02:15:33.218Z,3.92
2022-09-10T02:20:48.865Z,4.30
2022-09-10T02:25:50.616Z,3.78
2022-09-10T02:30:52.885Z,8.63
2022-09-10T02:35:55.148Z,3.83
2022-09-10T02:40:59.616Z,5.07
2022-09-10T02:46:02.420Z,5.82
2022-09-10T02:51:04.732Z,5.28
2022-09-10T02:56:08.806Z,6.55
2022-09-10T03:01:14.928Z,6.18
2022-09-10T03:06:18.733Z,4.30
2022-09-10T03:11:24.086Z,4.43
2022-09-10T03:16:26.988Z,4.90
2022-09-10T03:21:30.139Z,6.07
2022-09-10T03:26:33.261Z,4.13
2022-09-10T03:31:36.079Z,6.43
2022-09-10T03:36:38.082Z,5.00
2022-09-10T03:41:42.705Z,3.38
2022-09-10T03:46:45.573Z,3.38
2022-09-10T03:51:49.333Z,6.10
2022-09-10T03:56:51.772Z,3.20
2022-09-10T04:01:53.351Z,5.45
2022-09-10T04:06:55.445Z,4.82
2022-09-10T04:11:57.266Z,3.40
2022-09-10T04:17:02.265Z,4.63
2022-09-10T04:22:05.743Z,4.68
2022-09-10T04:27:07.785Z,3.80
2022-09-10T04:32:09.690Z,4.60
2022-09-10T04:37:12.721Z,4.05
2022-09-10T04:42:20.263Z,8.00
2022-09-10T04:47:23.344Z,3.58
2022-09-10T04:52:25.156Z,5.53
2022-09-10T04:57:27.980Z,5.68
2022-09-10T05:02:29.786Z,4.35
2022-09-10T05:07:31.574Z,5.38
2022-09-10T05:12:33.234Z,6.22
2022-09-10T05:17:35.033Z,5.22
2022-09-10T05:22:40.454Z,12.73
2022-09-10T05:27:43.021Z,4.97
2022-09-10T05:32:53.488Z,8.00
2022-09-10T05:38:00.969Z,9.10
2022-09-10T05:43:05.922Z,7.57
2022-09-10T05:48:07.809Z,5.10
2022-09-10T05:53:10.021Z,6.32
2022-09-10T05:58:13.627Z,4.88
2022-09-10T06:03:16.991Z,6.40
2022-09-10T06:08:22.733Z,4.63
2022-09-10T06:13:26.476Z,4.18
2022-09-10T06:18:29.942Z,2.83
2022-09-10T06:23:33.022Z,3.50
2022-09-10T06:28:35.274Z,6.65
2022-09-10T06:33:37.508Z,3.30
2022-09-10T06:38:41.086Z,3.50
2022-09-10T06:43:46.775Z,5.95
2022-09-10T06:49:18.793Z,4.05
2022-09-10T06:54:22.816Z,2.50
2022-09-10T06:59:24.857Z,2.42
2022-09-10T07:04:26.707Z,2.40
2022-09-10T07:09:32.167Z,2.92
2022-09-10T07:14:35.750Z,3.38
2022-09-10T07:19:41.261Z,2.97
2022-09-10T07:24:55.258Z,1.70
2022-09-10T07:30:06.266Z,2.92
2022-09-10T07:35:07.993Z,2.78
2022-09-10T07:40:10.248Z,5.95
2022-09-10T07:45:16.244Z,3.40
2022-09-10T07:50:19.313Z,3.40
2022-09-10T07:55:25.953Z,2.22
2022-09-10T08:00:28.218Z,1.63
2022-09-10T08:05:37.256Z,1.63
2022-09-10T08:10:39.180Z,1.83
2022-09-10T08:15:44.008Z,2.85
2022-09-10T08:20:53.274Z,2.08
2022-09-10T08:31:02.027Z,2.28
2022-09-10T08:36:11.982Z,3.33
2022-09-10T08:41:38.405Z,1.00
2022-09-10T08:46:57.815Z,2.85
2022-09-10T08:52:11.324Z,0.95
2022-09-10T08:57:26.310Z,4.72
2022-09-10T09:02:48.464Z,2.13
2022-09-10T09:07:53.271Z,3.97
2022-09-10T09:12:58.121Z,4.85
2022-09-10T09:18:21.108Z,1.00
2022-09-10T09:24:13.132Z,1.17
2022-09-10T09:29:36.118Z,3.47
2022-09-10T09:34:43.941Z,3.10
2022-09-10T09:40:06.207Z,2.13
2022-09-10T09:45:34.987Z,1.95
2022-09-10T09:50:41.769Z,2.38
2022-09-10T09:55:47.232Z,2.00
2022-09-10T10:00:50.001Z,3.10
2022-09-10T10:06:01.675Z,1.58
2022-09-10T10:11:04.858Z,1.85
2022-09-10T10:16:23.188Z,1.80
2022-09-10T10:21:31.956Z,2.58
2022-09-10T10:26:35.638Z,1.33
2022-09-10T10:31:40.596Z,4.07
2022-09-10T10:36:53.492Z,2.92
2022-09-10T10:42:04.399Z,3.50
2022-09-10T10:47:43.228Z,2.25
2022-09-10T10:53:02.274Z,3.33
2022-09-10T10:58:37.576Z,2.78
2022-09-10T11:03:44.921Z,2.45
2022-09-10T11:09:24.524Z,1.52
2022-09-10T11:14:48.800Z,3.28
2022-09-10T11:20:27.937Z,4.35
2022-09-10T11:26:15.682Z,4.50
2022-09-10T11:31:40.559Z,1.02
2022-09-10T11:36:55.926Z,0.70
2022-09-10T11:41:59.009Z,2.88
2022-09-10T11:47:09.091Z,2.10
2022-09-10T11:52:12.197Z,1.50
2022-09-10T11:57:48.293Z,1.50
2022-09-10T12:03:27.144Z,4.95
2022-09-10T12:08:48.450Z,0.63
2022-09-10T12:13:50.803Z,1.85
2022-09-10T12:18:56.096Z,2.30
2022-09-10T12:23:59.912Z,1.90
2022-09-10T12:29:03.287Z,1.35
2022-09-10T12:34:15.032Z,2.83
2022-09-10T12:39:25.344Z,1.42
2022-09-10T12:44:36.487Z,1.98
2022-09-10T12:49:53.056Z,1.92
2022-09-10T12:55:15.117Z,2.22
2022-09-10T13:00:22.213Z,1.35
2022-09-10T13:05:45.096Z,5.70
2022-09-10T13:11:06.475Z,2.22
2022-09-10T13:16:15.741Z,1.73
2022-09-10T13:21:23.854Z,2.95
2022-09-10T13:26:28.605Z,1.48
2022-09-10T13:31:38.433Z,1.58
2022-09-10T13:37:11.277Z,0.85
2022-09-10T13:42:35.434Z,0.80
2022-09-10T13:47:47.516Z,1.73
2022-09-10T13:52:53.263Z,6.93
2022-09-10T13:58:00.584Z,0.30
2022-09-10T14:03:02.381Z,1.73
2022-09-10T14:08:27.280Z,4.22
2022-09-10T14:13:56.074Z,1.00
2022-09-10T14:19:02.024Z,2.88
2022-09-10T14:24:04.070Z,0.30
2022-09-10T14:29:24.852Z,2.20
2022-09-10T14:34:34.906Z,1.20
2022-09-10T14:39:44.434Z,2.92
2022-09-10T14:44:47.265Z,0.90
2022-09-10T14:49:48.965Z,0.73
2022-09-10T14:54:51.184Z,0.98
2022-09-10T14:59:57.231Z,0.73
2022-09-10T15:04:59.250Z,3.15
2022-09-10T15:10:01.706Z,3.35
2022-09-10T15:15:04.204Z,2.47
2022-09-10T15:20:06.774Z,3.60
2022-09-10T15:25:28.237Z,1.92
2022-09-10T15:30:29.996Z,3.08
2022-09-10T15:35:31.756Z,4.00
2022-09-10T15:55:25.034Z,1.35
2022-09-10T16:00:26.846Z,0.98
2022-09-10T16:05:30.782Z,2.08
2022-09-10T16:10:33.340Z,1.50
2022-09-10T16:15:36.010Z,1.17
2022-09-10T16:20:37.852Z,1.35
2022-09-10T16:25:39.444Z,1.42
2022-09-10T16:30:41.592Z,0.88
2022-09-10T16:35:43.427Z,0.45
2022-09-10T16:40:45.780Z,0.28
2022-09-10T16:45:50.897Z,1.27
2022-09-10T16:50:52.481Z,1.55
2022-09-10T16:56:00.860Z,0.52
2022-09-10T17:01:04.811Z,2.33
2022-09-10T17:06:06.599Z,0.50
2022-09-10T17:11:08.854Z,0.68
2022-09-10T17:16:30.538Z,1.00
2022-09-10T17:21:34.533Z,0.60
2022-09-10T17:26:38.055Z,0.60
2022-09-10T17:31:41.087Z,0.30
2022-09-10T17:36:45.651Z,0.35
2022-09-10T17:41:48.397Z,0.25
2022-09-10T17:46:50.343Z,1.85
2022-09-10T17:51:52.407Z,1.10
2022-09-10T17:56:54.529Z,0.10
2022-09-10T18:01:58.002Z,0.10
2022-09-10T18:07:01.132Z,1.25
2022-09-10T18:12:04.464Z,1.85
2022-09-10T18:17:06.056Z,0.10
2022-09-10T18:22:07.868Z,1.75
2022-09-10T18:27:09.894Z,0.32
2022-09-10T18:32:15.077Z,0.15
2022-09-10T18:37:17.302Z,0.20
2022-09-10T18:42:19.329Z,0.03
2022-09-10T18:47:40.986Z,0.32
2022-09-10T18:52:43.300Z,0.65
2022-09-10T18:57:45.212Z,1.35
2022-09-10T19:02:47.405Z,0.75
2022-09-10T19:07:49.077Z,0.85
2022-09-10T19:12:51.812Z,0.35
2022-09-10T19:17:53.905Z,0.65
2022-09-10T19:22:55.677Z,1.08
2022-09-10T19:27:57.292Z,0.17
2022-09-10T19:32:59.048Z,0.73
2022-09-10T19:38:11.919Z,0.30
2022-09-10T19:43:22.711Z,0.45
2022-09-10T19:48:24.459Z,0.52
2022-09-10T19:53:26.270Z,0.55
2022-09-10T19:58:28.181Z,0.57
2022-09-10T20:03:29.814Z,0.40
2022-09-10T20:08:35.608Z,0.65
2022-09-10T20:13:37.825Z,0.82
2022-09-10T20:18:39.934Z,2.50
2022-09-10T20:23:43.443Z,2.65
2022-09-10T20:28:45.427Z,1.45
2022-09-10T20:33:47.112Z,1.27
2022-09-10T20:38:49.557Z,1.13
2022-09-10T20:43:52.906Z,0.20
2022-09-10T20:48:55.427Z,0.70
2022-09-10T20:53:57.773Z,0.85
2022-09-10T20:58:59.968Z,0.93
2022-09-10T21:04:04.096Z,1.08
2022-09-10T21:09:06.233Z,1.60
2022-09-10T21:14:08.797Z,2.67
2022-09-10T21:19:16.161Z,0.85
2022-09-10T21:24:22.396Z,1.63
2022-09-10T21:29:24.038Z,0.10
2022-09-10T21:34:25.640Z,0.90
2022-09-10T21:39:27.441Z,0.65
2022-09-10T21:44:29.341Z,0.85
2022-09-10T21:49:31.111Z,1.23
2022-09-10T21:54:32.954Z,1.17
2022-09-10T21:59:34.733Z,2.80
2022-09-10T22:04:36.597Z,0.90
2022-09-10T22:09:38.137Z,0.47
2022-09-10T22:14:39.890Z,0.55
2022-09-10T22:19:41.455Z,0.80
2022-09-10T22:24:43.048Z,0.95
2022-09-10T22:29:45.368Z,1.10
2022-09-10T22:34:48.988Z,0.57
2022-09-10T22:39:50.595Z,2.63
2022-09-10T22:44:52.560Z,1.40
2022-09-10T22:49:54.261Z,1.52
2022-09-10T22:54:56.121Z,1.40
2022-09-10T22:59:58.037Z,0.40
2022-09-10T23:05:00.018Z,0.30
2022-09-10T23:10:02.390Z,1.10
2022-09-10T23:15:04.750Z,0.55
2022-09-10T23:20:07.344Z,0.45
2022-09-10T23:25:09.673Z,0.20
2022-09-10T23:30:12.130Z,1.17
2022-09-10T23:35:14.092Z,0.45
2022-09-10T23:40:15.905Z,0.30
2022-09-10T23:45:17.807Z,0.20
2022-09-10T23:50:19.705Z,0.60
2022-09-10T23:55:21.312Z,0.73
